Anne Sibum — C4YC2 — position and weather

sailwx.info

Track history (hours):
 
Tides and Currents Weather Stations Pressure Air Temp Water Temp Dewpoint Dewpoint Depression Visibility Wind Speed Wind Dir Waves Ship Positions

Anne Sibum

Last reported at 2016-Jul-25 07:33 UTC. Time now 2016-Jul-25 08:08 UTC.
Position N 49°55' W 005°06'.

Length 151 m; draft 6.6 m.

Type: Ship (hazmat cat A). MMSI: 209322000.

Date/timePositionNaut miles runAvg speedWind from/ knotsBaromVisibWave heightAir tempDewpointWater temp
2016-Jul-25 07:33N 49°55' W 005°06'1817.6
2016-Jul-25 06:33N 49°55' W 005°34'13114.5
2016-Jul-24 21:33N 52°05' W 005°54'1515.4
2016-Jul-24 20:33N 52°21' W 005°54'1716.7
2016-Jul-24 19:32N 52°38' W 005°53'85 4.7
2016-Jul-24 01:27N 53°34' W 004°08'1516.3
2016-Jul-24 00:33N 53°34' W 003°43'1615.7
2016-Jul-23 23:33N 53°32' W 003°17'1110.7
2016-Jul-23 22:33N 53°27' W 003°01'1 0.5
2016-Jul-23 21:33N 53°27' W 003°01'0 0.4
2016-Jul-23 20:31N 53°28' W 003°01'0 0.0
2016-Jul-23 19:31N 53°28' W 003°01'0 0.0
2016-Jul-23 18:33N 53°28' W 003°01'0 0.0
2016-Jul-23 17:33N 53°28' W 003°01'0 0.0
2016-Jul-23 16:32N 53°28' W 003°01'0 0.0
2016-Jul-23 15:32N 53°28' W 003°01'0 0.0
2016-Jul-23 14:31N 53°28' W 003°01'0 0.0
2016-Jul-23 13:25N 53°28' W 003°01'0 0.0
2016-Jul-23 12:33N 53°28' W 003°01'0 0.0
2016-Jul-23 11:33N 53°28' W 003°01'0 0.0
2016-Jul-23 10:33N 53°28' W 003°01'0 0.0
2016-Jul-23 09:32N 53°28' W 003°01'0 0.0
2016-Jul-23 08:32N 53°28' W 003°01'0 0.0
2016-Jul-23 07:31N 53°28' W 003°01'0 0.0
2016-Jul-23 06:31N 53°28' W 003°01'0 0.0
2016-Jul-23 04:33N 53°28' W 003°01'0 0.0
2016-Jul-23 03:30N 53°28' W 003°01'0 0.0
2016-Jul-23 02:32N 53°28' W 003°01'0 0.0
2016-Jul-23 01:29N 53°28' W 003°01'0 0.0
2016-Jul-23 00:31N 53°28' W 003°01'1 0.7
2016-Jul-22 23:34N 53°27' W 003°01'1 0.6
2016-Jul-22 22:33N 53°26' W 003°01'5 4.7
2016-Jul-22 21:34N 53°30' W 003°06'1010.0
2016-Jul-22 20:33N 53°32' W 003°23'9 8.9
2016-Jul-22 19:33N 53°32' W 003°38'1110.8
2016-Jul-22 18:33N 53°34' W 003°55'8 7.9
2016-Jul-22 17:33N 53°39' W 004°06'48 8.0
2016-Jul-22 11:33N 54°13' W 005°04'9 8.7
2016-Jul-22 10:33N 54°20' W 005°10'9 9.3
2016-Jul-22 09:33N 54°29' W 005°18'1110.6
2016-Jul-22 08:33N 54°38' W 005°25'8 8.3
2016-Jul-22 07:33N 54°42' W 005°38'10 1.6
2016-Jul-22 01:21N 54°38' W 005°53'0 0.0
2016-Jul-21 21:10N 54°38' W 005°53'0 0.0
2016-Jul-21 20:31N 54°38' W 005°53'0 0.0
2016-Jul-21 19:27N 54°38' W 005°53'0 0.0
2016-Jul-21 10:08N 54°38' W 005°53'0 0.0
2016-Jul-21 09:05N 54°38' W 005°53'0 0.0
2016-Jul-21 08:16N 54°38' W 005°53'0 0.0
2016-Jul-21 07:31N 54°38' W 005°53'0 0.0
2016-Jul-21 06:27N 54°38' W 005°53'2 2.1
2016-Jul-21 05:28N 54°40' W 005°51'1011.2
2016-Jul-21 04:33N 54°43' W 005°34'1010.4
2016-Jul-21 03:33N 54°35' W 005°23'1212.5
2016-Jul-21 02:33N 54°22' W 005°19'1312.5
2016-Jul-21 01:34N 54°10' W 005°21'1312.4
2016-Jul-21 00:33N 53°58' W 005°24'18215.1
2016-Jul-20 12:30N 50°57' W 005°52'6212.4
2016-Jul-20 07:29N 49°57' W 005°27'1312.1
2016-Jul-20 06:26N 49°56' W 005°07'1213.9
2016-Jul-20 05:33N 49°58' W 004°49'1514.7
2016-Jul-20 04:33N 50°01' W 004°26'1515.0
2016-Jul-20 03:33N 50°03' W 004°03'1716.8
2016-Jul-20 02:33N 50°06' W 003°37'1817.7
2016-Jul-20 01:33N 50°09' W 003°10'1818.1
2016-Jul-20 00:32N 50°13' W 002°42'1818.1
2016-Jul-19 23:33N 50°16' W 002°15'1716.8
2016-Jul-19 22:33N 50°19' W 001°49'1515.3
2016-Jul-19 21:33N 50°22' W 001°25'1414.0
2016-Jul-19 20:33N 50°24' W 001°04'1413.6
2016-Jul-19 19:33N 50°27' W 000°43'1514.7
2016-Jul-19 18:33N 50°30' W 000°20'1616.3
2016-Jul-19 17:33N 50°33' E 000°05'2117.6
2016-Jul-19 16:21N 50°39' E 000°37'2217.5
2016-Jul-19 15:05N 50°51' E 001°06'916.5
2016-Jul-19 14:33N 50°58' E 001°16'1515.3
2016-Jul-19 13:33N 51°08' E 001°34'1414.2
2016-Jul-19 12:33N 51°18' E 001°50'1514.9
2016-Jul-19 11:34N 51°30' E 002°03'1616.0
2016-Jul-19 10:33N 51°42' E 002°21'4645.0
2016-Jul-19 09:32N 52°03' E 003°27'0 0.0
2016-Jul-19 08:32N 52°03' E 003°27'4 3.6
2016-Jul-19 07:33N 52°03' E 003°33'3411.3
2016-Jul-19 04:33N 51°53' E 004°25'0 0.0
2016-Jul-19 03:32N 51°53' E 004°25'0 0.0
2016-Jul-19 02:32N 51°53' E 004°25'0 0.0
2016-Jul-19 01:32N 51°53' E 004°25'0 0.0
2016-Jul-19 00:32N 51°53' E 004°25'0 0.0
2016-Jul-18 23:33N 51°53' E 004°25'0 0.0
2016-Jul-18 22:33N 51°53' E 004°25'2 1.7
2016-Jul-18 21:33N 51°54' E 004°23'9 9.3
2016-Jul-18 20:33N 51°58' E 004°09'4 4.0
2016-Jul-18 19:32N 51°58' E 004°02'0 0.0
2016-Jul-18 18:32N 51°58' E 004°02'0 0.0
2016-Jul-18 17:32N 51°58' E 004°02'0 0.0
2016-Jul-18 16:32N 51°58' E 004°02'0 0.0
2016-Jul-18 15:33N 51°58' E 004°02'0 0.0
2016-Jul-18 14:33N 51°58' E 004°02'1 0.7
2016-Jul-18 13:33N 51°58' E 004°03'0 0.0
2016-Jul-18 12:32N 51°58' E 004°03'0 0.1
2016-Jul-18 11:32N 51°58' E 004°03'1 0.9
2016-Jul-18 10:32N 51°57' E 004°04'0 0.0
2016-Jul-18 09:33N 51°57' E 004°04'0 0.0
2016-Jul-18 08:33N 51°57' E 004°04'0 0.0
2016-Jul-18 07:32N 51°57' E 004°04'0 0.0
2016-Jul-18 06:32N 51°57' E 004°04'0 0.0
2016-Jul-18 05:32N 51°57' E 004°04'0 0.0
2016-Jul-18 04:32N 51°57' E 004°04'0 0.0
2016-Jul-18 03:32N 51°57' E 004°04'0 0.0
2016-Jul-18 02:33N 51°57' E 004°04'0 0.0
2016-Jul-18 01:33N 51°57' E 004°04'0 0.0
2016-Jul-18 00:32N 51°57' E 004°04'0 0.0
2016-Jul-17 23:32N 51°57' E 004°04'1 0.7
2016-Jul-17 22:32N 51°58' E 004°04'0 0.0
2016-Jul-17 21:32N 51°58' E 004°04'0 0.0
2016-Jul-17 20:33N 51°58' E 004°04'0 0.0
2016-Jul-17 19:33N 51°58' E 004°04'0 0.0
2016-Jul-17 18:32N 51°58' E 004°04'0 0.0
2016-Jul-17 17:32N 51°58' E 004°04'0 0.0
2016-Jul-17 16:32N 51°58' E 004°04'0 0.0
2016-Jul-17 15:32N 51°58' E 004°04'0 0.0
2016-Jul-17 14:32N 51°58' E 004°04'0 0.0
2016-Jul-17 13:33N 51°58' E 004°04'0 0.0
2016-Jul-17 12:33N 51°58' E 004°04'0 0.0
2016-Jul-17 11:32N 51°58' E 004°04'0 0.0
2016-Jul-17 10:32N 51°58' E 004°04'0 0.0
2016-Jul-17 09:32N 51°58' E 004°04'0 0.0
2016-Jul-17 08:32N 51°58' E 004°04'0 0.0
2016-Jul-17 07:31N 51°58' E 004°04'0 0.0
2016-Jul-17 06:33N 51°58' E 004°04'0 0.0
2016-Jul-17 04:32N 51°58' E 004°04'0 0.0
2016-Jul-17 03:32N 51°58' E 004°04'0 0.0
2016-Jul-17 02:33N 51°58' E 004°04'0 0.0
2016-Jul-17 01:32N 51°58' E 004°04'0 0.0
2016-Jul-17 00:32N 51°58' E 004°04'0 0.0
2016-Jul-16 23:33N 51°58' E 004°04'0 0.0
2016-Jul-16 22:33N 51°58' E 004°04'0 0.0
2016-Jul-16 21:32N 51°58' E 004°04'0 0.0
2016-Jul-16 20:32N 51°58' E 004°04'0 0.0
2016-Jul-16 19:33N 51°58' E 004°04'3 2.9
2016-Jul-16 18:34N 51°58' E 003°60'1 1.0
2016-Jul-16 17:32N 51°57' E 004°00'0 0.0
2016-Jul-16 16:32N 51°57' E 004°00'0 0.0
2016-Jul-16 15:32N 51°57' E 004°00'0 0.0
2016-Jul-16 14:33N 51°57' E 004°00'0 0.0
2016-Jul-16 13:33N 51°57' E 004°00'0 0.0
2016-Jul-16 12:32N 51°57' E 004°00'0 0.0
2016-Jul-16 11:32N 51°57' E 004°00'0 0.0
2016-Jul-16 10:33N 51°57' E 004°00'0 0.0
2016-Jul-16 09:32N 51°57' E 004°00'0 0.1
2016-Jul-16 08:33N 51°57' E 004°00'2 1.9
2016-Jul-16 07:33N 51°58' E 004°03'0 0.4
2016-Jul-16 06:32N 51°58' E 004°03'0 0.0
2016-Jul-16 04:33N 51°58' E 004°03'0 0.0
2016-Jul-16 03:32N 51°58' E 004°03'0 0.0
2016-Jul-16 02:32N 51°58' E 004°03'1 0.5
2016-Jul-16 01:33N 51°57' E 004°03'0 0.0
2016-Jul-16 00:32N 51°57' E 004°03'0 0.0
2016-Jul-15 23:32N 51°57' E 004°03'0 0.0
2016-Jul-15 22:32N 51°57' E 004°03'0 0.0
2016-Jul-15 21:32N 51°57' E 004°03'1 0.5
2016-Jul-15 20:32N 51°58' E 004°03'0 0.0
2016-Jul-15 19:33N 51°58' E 004°03'0 0.0
2016-Jul-15 18:32N 51°58' E 004°03'0 0.0
2016-Jul-15 17:33N 51°58' E 004°03'0 0.2
2016-Jul-15 16:33N 51°58' E 004°04'10 9.7
2016-Jul-15 15:34N 51°54' E 004°18'4 4.1
2016-Jul-15 14:32N 51°53' E 004°25'0 0.0
2016-Jul-15 13:32N 51°53' E 004°25'0 0.0
2016-Jul-15 12:32N 51°53' E 004°25'0 0.0
2016-Jul-15 11:32N 51°53' E 004°25'0 0.0
2016-Jul-15 10:30N 51°53' E 004°25'0 0.0
2016-Jul-15 09:32N 51°53' E 004°25'0 0.0
2016-Jul-15 08:32N 51°53' E 004°25'  
Track history (hours):
 
Tides and Currents Weather Stations Pressure Air Temp Water Temp Dewpoint Dewpoint Depression Visibility Wind Speed Wind Dir Waves Ship Positions

Anne Sibum

Last reported at 2016-Jul-25 07:33 UTC. Time now 2016-Jul-25 08:08 UTC.
Position N 49°55' W 005°06'.

Length 151 m; draft 6.6 m.

Type: Ship (hazmat cat A). MMSI: 209322000.

Date/timePositionNaut miles runAvg speedWind from/ knotsBaromVisibWave heightAir tempDewpointWater temp
2016-Jul-25 07:33N 49°55' W 005°06'1817.6
2016-Jul-25 06:33N 49°55' W 005°34'13114.5
2016-Jul-24 21:33N 52°05' W 005°54'1515.4
2016-Jul-24 20:33N 52°21' W 005°54'1716.7
2016-Jul-24 19:32N 52°38' W 005°53'85 4.7
2016-Jul-24 01:27N 53°34' W 004°08'1516.3
2016-Jul-24 00:33N 53°34' W 003°43'1615.7
2016-Jul-23 23:33N 53°32' W 003°17'1110.7
2016-Jul-23 22:33N 53°27' W 003°01'1 0.5
2016-Jul-23 21:33N 53°27' W 003°01'0 0.4
2016-Jul-23 20:31N 53°28' W 003°01'0 0.0
2016-Jul-23 19:31N 53°28' W 003°01'0 0.0
2016-Jul-23 18:33N 53°28' W 003°01'0 0.0
2016-Jul-23 17:33N 53°28' W 003°01'0 0.0
2016-Jul-23 16:32N 53°28' W 003°01'0 0.0
2016-Jul-23 15:32N 53°28' W 003°01'0 0.0
2016-Jul-23 14:31N 53°28' W 003°01'0 0.0
2016-Jul-23 13:25N 53°28' W 003°01'0 0.0
2016-Jul-23 12:33N 53°28' W 003°01'0 0.0
2016-Jul-23 11:33N 53°28' W 003°01'0 0.0
2016-Jul-23 10:33N 53°28' W 003°01'0 0.0
2016-Jul-23 09:32N 53°28' W 003°01'0 0.0
2016-Jul-23 08:32N 53°28' W 003°01'0 0.0
2016-Jul-23 07:31N 53°28' W 003°01'0 0.0
2016-Jul-23 06:31N 53°28' W 003°01'0 0.0
2016-Jul-23 04:33N 53°28' W 003°01'0 0.0
2016-Jul-23 03:30N 53°28' W 003°01'0 0.0
2016-Jul-23 02:32N 53°28' W 003°01'0 0.0
2016-Jul-23 01:29N 53°28' W 003°01'0 0.0
2016-Jul-23 00:31N 53°28' W 003°01'1 0.7
2016-Jul-22 23:34N 53°27' W 003°01'1 0.6
2016-Jul-22 22:33N 53°26' W 003°01'5 4.7
2016-Jul-22 21:34N 53°30' W 003°06'1010.0
2016-Jul-22 20:33N 53°32' W 003°23'9 8.9
2016-Jul-22 19:33N 53°32' W 003°38'1110.8
2016-Jul-22 18:33N 53°34' W 003°55'8 7.9
2016-Jul-22 17:33N 53°39' W 004°06'48 8.0
2016-Jul-22 11:33N 54°13' W 005°04'9 8.7
2016-Jul-22 10:33N 54°20' W 005°10'9 9.3
2016-Jul-22 09:33N 54°29' W 005°18'1110.6
2016-Jul-22 08:33N 54°38' W 005°25'8 8.3
2016-Jul-22 07:33N 54°42' W 005°38'10 1.6
2016-Jul-22 01:21N 54°38' W 005°53'0 0.0
2016-Jul-21 21:10N 54°38' W 005°53'0 0.0
2016-Jul-21 20:31N 54°38' W 005°53'0 0.0
2016-Jul-21 19:27N 54°38' W 005°53'0 0.0
2016-Jul-21 10:08N 54°38' W 005°53'0 0.0
2016-Jul-21 09:05N 54°38' W 005°53'0 0.0
2016-Jul-21 08:16N 54°38' W 005°53'0 0.0
2016-Jul-21 07:31N 54°38' W 005°53'0 0.0
2016-Jul-21 06:27N 54°38' W 005°53'2 2.1
2016-Jul-21 05:28N 54°40' W 005°51'1011.2
2016-Jul-21 04:33N 54°43' W 005°34'1010.4
2016-Jul-21 03:33N 54°35' W 005°23'1212.5
2016-Jul-21 02:33N 54°22' W 005°19'1312.5
2016-Jul-21 01:34N 54°10' W 005°21'1312.4
2016-Jul-21 00:33N 53°58' W 005°24'18215.1
2016-Jul-20 12:30N 50°57' W 005°52'6212.4
2016-Jul-20 07:29N 49°57' W 005°27'1312.1
2016-Jul-20 06:26N 49°56' W 005°07'1213.9
2016-Jul-20 05:33N 49°58' W 004°49'1514.7
2016-Jul-20 04:33N 50°01' W 004°26'1515.0
2016-Jul-20 03:33N 50°03' W 004°03'1716.8
2016-Jul-20 02:33N 50°06' W 003°37'1817.7
2016-Jul-20 01:33N 50°09' W 003°10'1818.1
2016-Jul-20 00:32N 50°13' W 002°42'1818.1
2016-Jul-19 23:33N 50°16' W 002°15'1716.8
2016-Jul-19 22:33N 50°19' W 001°49'1515.3
2016-Jul-19 21:33N 50°22' W 001°25'1414.0
2016-Jul-19 20:33N 50°24' W 001°04'1413.6
2016-Jul-19 19:33N 50°27' W 000°43'1514.7
2016-Jul-19 18:33N 50°30' W 000°20'1616.3
2016-Jul-19 17:33N 50°33' E 000°05'2117.6
2016-Jul-19 16:21N 50°39' E 000°37'2217.5
2016-Jul-19 15:05N 50°51' E 001°06'916.5
2016-Jul-19 14:33N 50°58' E 001°16'1515.3
2016-Jul-19 13:33N 51°08' E 001°34'1414.2
2016-Jul-19 12:33N 51°18' E 001°50'1514.9
2016-Jul-19 11:34N 51°30' E 002°03'1616.0
2016-Jul-19 10:33N 51°42' E 002°21'4645.0
2016-Jul-19 09:32N 52°03' E 003°27'0 0.0
2016-Jul-19 08:32N 52°03' E 003°27'4 3.6
2016-Jul-19 07:33N 52°03' E 003°33'3411.3
2016-Jul-19 04:33N 51°53' E 004°25'0 0.0
2016-Jul-19 03:32N 51°53' E 004°25'0 0.0
2016-Jul-19 02:32N 51°53' E 004°25'0 0.0
2016-Jul-19 01:32N 51°53' E 004°25'0 0.0
2016-Jul-19 00:32N 51°53' E 004°25'0 0.0
2016-Jul-18 23:33N 51°53' E 004°25'0 0.0
2016-Jul-18 22:33N 51°53' E 004°25'2 1.7
2016-Jul-18 21:33N 51°54' E 004°23'9 9.3
2016-Jul-18 20:33N 51°58' E 004°09'4 4.0
2016-Jul-18 19:32N 51°58' E 004°02'0 0.0
2016-Jul-18 18:32N 51°58' E 004°02'0 0.0
2016-Jul-18 17:32N 51°58' E 004°02'0 0.0
2016-Jul-18 16:32N 51°58' E 004°02'0 0.0
2016-Jul-18 15:33N 51°58' E 004°02'0 0.0
2016-Jul-18 14:33N 51°58' E 004°02'1 0.7
2016-Jul-18 13:33N 51°58' E 004°03'0 0.0
2016-Jul-18 12:32N 51°58' E 004°03'0 0.1
2016-Jul-18 11:32N 51°58' E 004°03'1 0.9
2016-Jul-18 10:32N 51°57' E 004°04'0 0.0
2016-Jul-18 09:33N 51°57' E 004°04'0 0.0
2016-Jul-18 08:33N 51°57' E 004°04'0 0.0
2016-Jul-18 07:32N 51°57' E 004°04'0 0.0
2016-Jul-18 06:32N 51°57' E 004°04'0 0.0
2016-Jul-18 05:32N 51°57' E 004°04'0 0.0
2016-Jul-18 04:32N 51°57' E 004°04'0 0.0
2016-Jul-18 03:32N 51°57' E 004°04'0 0.0
2016-Jul-18 02:33N 51°57' E 004°04'0 0.0
2016-Jul-18 01:33N 51°57' E 004°04'0 0.0
2016-Jul-18 00:32N 51°57' E 004°04'0 0.0
2016-Jul-17 23:32N 51°57' E 004°04'1 0.7
2016-Jul-17 22:32N 51°58' E 004°04'0 0.0
2016-Jul-17 21:32N 51°58' E 004°04'0 0.0
2016-Jul-17 20:33N 51°58' E 004°04'0 0.0
2016-Jul-17 19:33N 51°58' E 004°04'0 0.0
2016-Jul-17 18:32N 51°58' E 004°04'0 0.0
2016-Jul-17 17:32N 51°58' E 004°04'0 0.0
2016-Jul-17 16:32N 51°58' E 004°04'0 0.0
2016-Jul-17 15:32N 51°58' E 004°04'0 0.0
2016-Jul-17 14:32N 51°58' E 004°04'0 0.0
2016-Jul-17 13:33N 51°58' E 004°04'0 0.0
2016-Jul-17 12:33N 51°58' E 004°04'0 0.0
2016-Jul-17 11:32N 51°58' E 004°04'0 0.0
2016-Jul-17 10:32N 51°58' E 004°04'0 0.0
2016-Jul-17 09:32N 51°58' E 004°04'0 0.0
2016-Jul-17 08:32N 51°58' E 004°04'0 0.0
2016-Jul-17 07:31N 51°58' E 004°04'0 0.0
2016-Jul-17 06:33N 51°58' E 004°04'0 0.0
2016-Jul-17 04:32N 51°58' E 004°04'0 0.0
2016-Jul-17 03:32N 51°58' E 004°04'0 0.0
2016-Jul-17 02:33N 51°58' E 004°04'0 0.0
2016-Jul-17 01:32N 51°58' E 004°04'0 0.0
2016-Jul-17 00:32N 51°58' E 004°04'0 0.0
2016-Jul-16 23:33N 51°58' E 004°04'0 0.0
2016-Jul-16 22:33N 51°58' E 004°04'0 0.0
2016-Jul-16 21:32N 51°58' E 004°04'0 0.0
2016-Jul-16 20:32N 51°58' E 004°04'0 0.0
2016-Jul-16 19:33N 51°58' E 004°04'3 2.9
2016-Jul-16 18:34N 51°58' E 003°60'1 1.0
2016-Jul-16 17:32N 51°57' E 004°00'0 0.0
2016-Jul-16 16:32N 51°57' E 004°00'0 0.0
2016-Jul-16 15:32N 51°57' E 004°00'0 0.0
2016-Jul-16 14:33N 51°57' E 004°00'0 0.0
2016-Jul-16 13:33N 51°57' E 004°00'0 0.0
2016-Jul-16 12:32N 51°57' E 004°00'0 0.0
2016-Jul-16 11:32N 51°57' E 004°00'0 0.0
2016-Jul-16 10:33N 51°57' E 004°00'0 0.0
2016-Jul-16 09:32N 51°57' E 004°00'0 0.1
2016-Jul-16 08:33N 51°57' E 004°00'2 1.9
2016-Jul-16 07:33N 51°58' E 004°03'0 0.4
2016-Jul-16 06:32N 51°58' E 004°03'0 0.0
2016-Jul-16 04:33N 51°58' E 004°03'0 0.0
2016-Jul-16 03:32N 51°58' E 004°03'0 0.0
2016-Jul-16 02:32N 51°58' E 004°03'1 0.5
2016-Jul-16 01:33N 51°57' E 004°03'0 0.0
2016-Jul-16 00:32N 51°57' E 004°03'0 0.0
2016-Jul-15 23:32N 51°57' E 004°03'0 0.0
2016-Jul-15 22:32N 51°57' E 004°03'0 0.0
2016-Jul-15 21:32N 51°57' E 004°03'1 0.5
2016-Jul-15 20:32N 51°58' E 004°03'0 0.0
2016-Jul-15 19:33N 51°58' E 004°03'0 0.0
2016-Jul-15 18:32N 51°58' E 004°03'0 0.0
2016-Jul-15 17:33N 51°58' E 004°03'0 0.2
2016-Jul-15 16:33N 51°58' E 004°04'10 9.7
2016-Jul-15 15:34N 51°54' E 004°18'4 4.1
2016-Jul-15 14:32N 51°53' E 004°25'0 0.0
2016-Jul-15 13:32N 51°53' E 004°25'0 0.0
2016-Jul-15 12:32N 51°53' E 004°25'0 0.0
2016-Jul-15 11:32N 51°53' E 004°25'0 0.0
2016-Jul-15 10:30N 51°53' E 004°25'0 0.0
2016-Jul-15 09:32N 51°53' E 004°25'0 0.0
2016-Jul-15 08:32N 51°53' E 004°25'  

Dump ship's entire track history